GMTA/AHU METAR and TAF weather

Enter ICAO airport designator
Station Type Date Time Source
GMTA METAR 2018/12/12 05:00 UTC NOAA

GMTA 120500Z 18006KT 7000 NSC 13/14 Q1022 NOSIG


Station Type Date Time Source
GMTA Decoded METAR 2018/12/12 05:00 UTC NOAA

Al Hoceima, Morocco (GMTA) 35-11N 003-51W 14M
Dec 12, 2018 - 12:00 AM EST / 2018.12.12 0500 UTC
Wind: from the S (180 degrees) at 7 MPH (6 KT):0
Visibility: 4 mile(s):0
Temperature: 55 F (13 C)
Dew Point: 57 F (14 C)
Relative Humidity: 106%
Pressure (altimeter): 30.18 in. Hg (1022 hPa)
ob: GMTA 120500Z 18006KT 7000 NSC 13/14 Q1022 NOSIG
cycle: 5

Station Type Date Time Source
GMTA TAF 2018/12/11 18:18 UTC NOAA

TAF GMTA 111700Z 1118/1224 VRB02KT 9999 BKN030 PROB30 1120/1204 3000 BR


Example: see airport list